sensor_id;sensor_type;location;lat;lon;timestamp;P1;durP1;ratioP1;P2;durP2;ratioP2
75984;SDS011;65033;44.660;37.758;2023-01-28T00:00:31;8.18;;;7.28;;
75984;SDS011;65033;44.660;37.758;2023-01-28T00:01:37;8.80;;;6.63;;
75984;SDS011;65033;44.660;37.758;2023-01-28T00:02:41;7.22;;;6.43;;
75984;SDS011;65033;44.660;37.758;2023-01-28T00:03:45;8.63;;;7.57;;
75984;SDS011;65033;44.660;37.758;2023-01-28T00:04:52;7.50;;;6.45;;
75984;SDS011;65033;44.660;37.758;2023-01-28T00:06:00;8.65;;;6.75;;
75984;SDS011;65033;44.660;37.758;2023-01-28T00:07:05;8.00;;;6.85;;
75984;SDS011;65033;44.660;37.758;2023-01-28T00:08:09;8.57;;;7.10;;
75984;SDS011;65033;44.660;37.758;2023-01-28T00:09:12;8.75;;;6.85;;
75984;SDS011;65033;44.660;37.758;2023-01-28T00:10:16;7.60;;;6.78;;
75984;SDS011;65033;44.660;37.758;2023-01-28T00:11:19;8.20;;;6.93;;
75984;SDS011;65033;44.660;37.758;2023-01-28T00:12:26;8.45;;;7.13;;
75984;SDS011;65033;44.660;37.758;2023-01-28T00:13:31;7.97;;;6.68;;
75984;SDS011;65033;44.660;37.758;2023-01-28T00:14:35;7.28;;;6.18;;
75984;SDS011;65033;44.660;37.758;2023-01-28T00:15:39;7.57;;;6.32;;
75984;SDS011;65033;44.660;37.758;2023-01-28T00:16:42;7.65;;;6.28;;
75984;SDS011;65033;44.660;37.758;2023-01-28T00:17:46;7.57;;;6.28;;
75984;SDS011;65033;44.660;37.758;2023-01-28T00:18:49;8.35;;;6.30;;
75984;SDS011;65033;44.660;37.758;2023-01-28T00:19:55;6.60;;;5.90;;
75984;SDS011;65033;44.660;37.758;2023-01-28T00:20:59;7.63;;;6.65;;
75984;SDS011;65033;44.660;37.758;2023-01-28T00:22:03;8.68;;;5.43;;
75984;SDS011;65033;44.660;37.758;2023-01-28T00:23:07;8.23;;;6.75;;
75984;SDS011;65033;44.660;37.758;2023-01-28T00:24:11;7.05;;;5.97;;
75984;SDS011;65033;44.660;37.758;2023-01-28T00:25:14;8.00;;;6.70;;
75984;SDS011;65033;44.660;37.758;2023-01-28T00:26:17;7.30;;;6.30;;
75984;SDS011;65033;44.660;37.758;2023-01-28T00:27:21;7.72;;;6.25;;
75984;SDS011;65033;44.660;37.758;2023-01-28T00:28:24;7.43;;;6.63;;
75984;SDS011;65033;44.660;37.758;2023-01-28T00:29:30;7.38;;;6.40;;
75984;SDS011;65033;44.660;37.758;2023-01-28T00:30:33;7.80;;;6.10;;
75984;SDS011;65033;44.660;37.758;2023-01-28T00:31:39;7.20;;;5.88;;
75984;SDS011;65033;44.660;37.758;2023-01-28T00:32:43;10.48;;;6.10;;
75984;SDS011;65033;44.660;37.758;2023-01-28T00:33:47;7.38;;;6.50;;
75984;SDS011;65033;44.660;37.758;2023-01-28T00:34:51;8.88;;;6.50;;
75984;SDS011;65033;44.660;37.758;2023-01-28T00:35:57;8.07;;;6.35;;
75984;SDS011;65033;44.660;37.758;2023-01-28T00:37:01;8.27;;;6.65;;
75984;SDS011;65033;44.660;37.758;2023-01-28T00:38:05;7.57;;;6.50;;
75984;SDS011;65033;44.660;37.758;2023-01-28T00:39:12;7.25;;;6.55;;
75984;SDS011;65033;44.660;37.758;2023-01-28T00:40:16;6.25;;;5.57;;
75984;SDS011;65033;44.660;37.758;2023-01-28T00:41:22;7.30;;;6.57;;
75984;SDS011;65033;44.660;37.758;2023-01-28T00:42:26;7.20;;;6.28;;
75984;SDS011;65033;44.660;37.758;2023-01-28T00:43:30;7.35;;;6.55;;
75984;SDS011;65033;44.660;37.758;2023-01-28T00:44:33;6.93;;;6.05;;
75984;SDS011;65033;44.660;37.758;2023-01-28T00:45:37;8.38;;;6.43;;
75984;SDS011;65033;44.660;37.758;2023-01-28T00:46:41;7.22;;;6.28;;
75984;SDS011;65033;44.660;37.758;2023-01-28T00:47:44;6.80;;;6.05;;
75984;SDS011;65033;44.660;37.758;2023-01-28T00:48:49;6.15;;;5.55;;
75984;SDS011;65033;44.660;37.758;2023-01-28T00:49:53;7.60;;;5.72;;
75984;SDS011;65033;44.660;37.758;2023-01-28T00:50:58;7.38;;;6.05;;
75984;SDS011;65033;44.660;37.758;2023-01-28T00:52:02;7.57;;;6.40;;
75984;SDS011;65033;44.660;37.758;2023-01-28T00:53:05;6.55;;;5.75;;
75984;SDS011;65033;44.660;37.758;2023-01-28T00:54:10;7.97;;;6.13;;
75984;SDS011;65033;44.660;37.758;2023-01-28T00:55:15;7.60;;;6.00;;
75984;SDS011;65033;44.660;37.758;2023-01-28T00:56:19;7.40;;;6.15;;
75984;SDS011;65033;44.660;37.758;2023-01-28T00:57:23;7.18;;;6.35;;
75984;SDS011;65033;44.660;37.758;2023-01-28T00:58:26;7.30;;;5.65;;
75984;SDS011;65033;44.660;37.758;2023-01-28T00:59:29;9.32;;;6.15;;
75984;SDS011;65033;44.660;37.758;2023-01-28T01:00:33;6.75;;;5.68;;
75984;SDS011;65033;44.660;37.758;2023-01-28T01:01:37;7.43;;;5.88;;
75984;SDS011;65033;44.660;37.758;2023-01-28T01:02:40;7.88;;;6.22;;
75984;SDS011;65033;44.660;37.758;2023-01-28T01:03:46;6.88;;;6.13;;
75984;SDS011;65033;44.660;37.758;2023-01-28T01:04:59;6.85;;;6.15;;
75984;SDS011;65033;44.660;37.758;2023-01-28T01:06:02;7.15;;;5.80;;
75984;SDS011;65033;44.660;37.758;2023-01-28T01:07:06;8.00;;;6.05;;
75984;SDS011;65033;44.660;37.758;2023-01-28T01:08:09;6.80;;;6.10;;
75984;SDS011;65033;44.660;37.758;2023-01-28T01:09:14;6.90;;;6.05;;
75984;SDS011;65033;44.660;37.758;2023-01-28T01:10:17;8.25;;;6.00;;
75984;SDS011;65033;44.660;37.758;2023-01-28T01:11:21;6.90;;;5.93;;
75984;SDS011;65033;44.660;37.758;2023-01-28T01:12:25;6.50;;;5.80;;
75984;SDS011;65033;44.660;37.758;2023-01-28T01:13:28;6.78;;;5.43;;
75984;SDS011;65033;44.660;37.758;2023-01-28T01:14:33;7.00;;;5.68;;
75984;SDS011;65033;44.660;37.758;2023-01-28T01:15:36;6.82;;;6.13;;
75984;SDS011;65033;44.660;37.758;2023-01-28T01:16:39;6.63;;;6.00;;
75984;SDS011;65033;44.660;37.758;2023-01-28T01:17:43;6.55;;;5.25;;
75984;SDS011;65033;44.660;37.758;2023-01-28T01:18:49;6.65;;;5.80;;
75984;SDS011;65033;44.660;37.758;2023-01-28T01:19:53;7.20;;;5.70;;
75984;SDS011;65033;44.660;37.758;2023-01-28T01:20:56;7.60;;;6.07;;
75984;SDS011;65033;44.660;37.758;2023-01-28T01:22:00;8.23;;;6.28;;
75984;SDS011;65033;44.660;37.758;2023-01-28T01:23:03;6.60;;;5.75;;
75984;SDS011;65033;44.660;37.758;2023-01-28T01:24:06;6.03;;;5.32;;
75984;SDS011;65033;44.660;37.758;2023-01-28T01:25:12;6.75;;;5.57;;
75984;SDS011;65033;44.660;37.758;2023-01-28T01:26:16;6.85;;;5.97;;
75984;SDS011;65033;44.660;37.758;2023-01-28T01:27:20;6.63;;;5.85;;
75984;SDS011;65033;44.660;37.758;2023-01-28T01:28:26;6.20;;;5.57;;
75984;SDS011;65033;44.660;37.758;2023-01-28T01:29:29;6.57;;;5.60;;
75984;SDS011;65033;44.660;37.758;2023-01-28T01:30:33;7.38;;;6.28;;
75984;SDS011;65033;44.660;37.758;2023-01-28T01:31:36;6.90;;;6.15;;
75984;SDS011;65033;44.660;37.758;2023-01-28T01:32:40;6.22;;;5.63;;
75984;SDS011;65033;44.660;37.758;2023-01-28T01:33:43;7.20;;;6.00;;
75984;SDS011;65033;44.660;37.758;2023-01-28T01:34:48;6.93;;;5.57;;
75984;SDS011;65033;44.660;37.758;2023-01-28T01:35:52;6.97;;;5.65;;
75984;SDS011;65033;44.660;37.758;2023-01-28T01:36:56;7.22;;;6.10;;
75984;SDS011;65033;44.660;37.758;2023-01-28T01:37:59;7.03;;;5.55;;
75984;SDS011;65033;44.660;37.758;2023-01-28T01:39:03;5.57;;;4.93;;
75984;SDS011;65033;44.660;37.758;2023-01-28T01:40:06;7.28;;;5.15;;
75984;SDS011;65033;44.660;37.758;2023-01-28T01:41:15;6.38;;;5.60;;
75984;SDS011;65033;44.660;37.758;2023-01-28T01:42:25;6.38;;;5.78;;
75984;SDS011;65033;44.660;37.758;2023-01-28T01:44:53;6.07;;;5.47;;
75984;SDS011;65033;44.660;37.758;2023-01-28T01:45:59;6.70;;;5.68;;
75984;SDS011;65033;44.660;37.758;2023-01-28T01:47:03;6.97;;;5.93;;
75984;SDS011;65033;44.660;37.758;2023-01-28T01:48:09;6.43;;;5.40;;
75984;SDS011;65033;44.660;37.758;2023-01-28T01:49:19;6.20;;;5.53;;
75984;SDS011;65033;44.660;37.758;2023-01-28T01:50:25;5.90;;;5.28;;
75984;SDS011;65033;44.660;37.758;2023-01-28T01:51:31;8.07;;;5.75;;
75984;SDS011;65033;44.660;37.758;2023-01-28T01:52:36;6.45;;;5.47;;
75984;SDS011;65033;44.660;37.758;2023-01-28T01:53:40;6.68;;;5.63;;
75984;SDS011;65033;44.660;37.758;2023-01-28T01:54:47;6.85;;;5.65;;
75984;SDS011;65033;44.660;37.758;2023-01-28T01:55:56;6.57;;;5.80;;
75984;SDS011;65033;44.660;37.758;2023-01-28T01:57:04;6.40;;;5.07;;
75984;SDS011;65033;44.660;37.758;2023-01-28T01:58:12;6.90;;;6.13;;
75984;SDS011;65033;44.660;37.758;2023-01-28T01:59:20;5.93;;;5.32;;
75984;SDS011;65033;44.660;37.758;2023-01-28T02:00:28;5.13;;;4.63;;
75984;SDS011;65033;44.660;37.758;2023-01-28T02:01:32;6.97;;;4.97;;
75984;SDS011;65033;44.660;37.758;2023-01-28T02:02:37;6.57;;;5.88;;
75984;SDS011;65033;44.660;37.758;2023-01-28T02:03:43;6.28;;;5.57;;
75984;SDS011;65033;44.660;37.758;2023-01-28T02:04:53;6.75;;;5.65;;
75984;SDS011;65033;44.660;37.758;2023-01-28T02:05:57;5.95;;;5.35;;
75984;SDS011;65033;44.660;37.758;2023-01-28T02:07:00;6.25;;;5.10;;
75984;SDS011;65033;44.660;37.758;2023-01-28T02:08:04;7.07;;;5.20;;
75984;SDS011;65033;44.660;37.758;2023-01-28T02:09:23;6.35;;;4.97;;
75984;SDS011;65033;44.660;37.758;2023-01-28T02:10:27;5.68;;;5.10;;
75984;SDS011;65033;44.660;37.758;2023-01-28T02:11:33;6.53;;;5.35;;
75984;SDS011;65033;44.660;37.758;2023-01-28T02:12:39;6.55;;;5.50;;
75984;SDS011;65033;44.660;37.758;2023-01-28T02:13:45;6.30;;;5.55;;
75984;SDS011;65033;44.660;37.758;2023-01-28T02:14:51;5.43;;;4.90;;
75984;SDS011;65033;44.660;37.758;2023-01-28T02:15:58;5.57;;;4.97;;
75984;SDS011;65033;44.660;37.758;2023-01-28T02:17:03;5.43;;;4.93;;
75984;SDS011;65033;44.660;37.758;2023-01-28T02:18:07;6.13;;;5.35;;
75984;SDS011;65033;44.660;37.758;2023-01-28T02:19:10;6.03;;;5.00;;
75984;SDS011;65033;44.660;37.758;2023-01-28T02:20:16;6.45;;;5.75;;
75984;SDS011;65033;44.660;37.758;2023-01-28T02:21:36;5.25;;;4.75;;
75984;SDS011;65033;44.660;37.758;2023-01-28T02:28:00;5.88;;;5.07;;
75984;SDS011;65033;44.660;37.758;2023-01-28T02:29:14;5.85;;;4.90;;
75984;SDS011;65033;44.660;37.758;2023-01-28T02:30:26;5.63;;;4.80;;
75984;SDS011;65033;44.660;37.758;2023-01-28T02:31:37;5.75;;;4.70;;
75984;SDS011;65033;44.660;37.758;2023-01-28T02:32:48;6.45;;;5.28;;
75984;SDS011;65033;44.660;37.758;2023-01-28T02:33:55;6.05;;;5.25;;
75984;SDS011;65033;44.660;37.758;2023-01-28T02:35:05;6.38;;;5.22;;
75984;SDS011;65033;44.660;37.758;2023-01-28T02:36:16;5.63;;;4.80;;
75984;SDS011;65033;44.660;37.758;2023-01-28T02:37:26;6.45;;;5.13;;
75984;SDS011;65033;44.660;37.758;2023-01-28T02:38:38;5.45;;;4.90;;
75984;SDS011;65033;44.660;37.758;2023-01-28T02:39:48;6.32;;;5.22;;
75984;SDS011;65033;44.660;37.758;2023-01-28T02:40:55;5.50;;;4.85;;
75984;SDS011;65033;44.660;37.758;2023-01-28T02:42:05;6.05;;;5.25;;
75984;SDS011;65033;44.660;37.758;2023-01-28T02:43:13;5.95;;;5.15;;
75984;SDS011;65033;44.660;37.758;2023-01-28T02:44:19;6.28;;;5.18;;
75984;SDS011;65033;44.660;37.758;2023-01-28T02:45:26;5.70;;;4.93;;
75984;SDS011;65033;44.660;37.758;2023-01-28T02:47:07;5.70;;;4.55;;
75984;SDS011;65033;44.660;37.758;2023-01-28T02:48:30;5.45;;;4.95;;
75984;SDS011;65033;44.660;37.758;2023-01-28T02:49:34;6.45;;;4.90;;
75984;SDS011;65033;44.660;37.758;2023-01-28T02:50:46;7.95;;;4.80;;
75984;SDS011;65033;44.660;37.758;2023-01-28T02:51:59;5.03;;;4.53;;
75984;SDS011;65033;44.660;37.758;2023-01-28T02:53:15;6.90;;;4.97;;
75984;SDS011;65033;44.660;37.758;2023-01-28T02:54:44;5.72;;;5.13;;
75984;SDS011;65033;44.660;37.758;2023-01-28T02:55:56;5.40;;;4.75;;
75984;SDS011;65033;44.660;37.758;2023-01-28T02:57:08;6.43;;;4.72;;
75984;SDS011;65033;44.660;37.758;2023-01-28T02:58:24;6.05;;;5.38;;
75984;SDS011;65033;44.660;37.758;2023-01-28T02:59:35;5.38;;;4.88;;
75984;SDS011;65033;44.660;37.758;2023-01-28T03:00:47;5.90;;;5.03;;
75984;SDS011;65033;44.660;37.758;2023-01-28T03:01:55;5.55;;;4.70;;
75984;SDS011;65033;44.660;37.758;2023-01-28T03:03:04;5.68;;;5.07;;
75984;SDS011;65033;44.660;37.758;2023-01-28T03:04:13;5.28;;;4.78;;
75984;SDS011;65033;44.660;37.758;2023-01-28T03:05:24;5.68;;;4.70;;
75984;SDS011;65033;44.660;37.758;2023-01-28T03:06:32;6.50;;;5.45;;
75984;SDS011;65033;44.660;37.758;2023-01-28T03:07:41;6.15;;;4.82;;
75984;SDS011;65033;44.660;37.758;2023-01-28T03:08:46;5.55;;;4.97;;
75984;SDS011;65033;44.660;37.758;2023-01-28T03:10:13;5.95;;;5.28;;
75984;SDS011;65033;44.660;37.758;2023-01-28T03:11:20;5.32;;;4.78;;
75984;SDS011;65033;44.660;37.758;2023-01-28T03:12:43;5.30;;;4.80;;
75984;SDS011;65033;44.660;37.758;2023-01-28T03:14:14;6.10;;;5.50;;
75984;SDS011;65033;44.660;37.758;2023-01-28T03:15:40;5.60;;;4.57;;
75984;SDS011;65033;44.660;37.758;2023-01-28T03:17:04;6.00;;;4.65;;
75984;SDS011;65033;44.660;37.758;2023-01-28T03:19:57;5.10;;;4.60;;
75984;SDS011;65033;44.660;37.758;2023-01-28T03:21:19;6.53;;;4.95;;
75984;SDS011;65033;44.660;37.758;2023-01-28T03:22:46;5.70;;;4.85;;
75984;SDS011;65033;44.660;37.758;2023-01-28T03:24:16;5.43;;;4.55;;
75984;SDS011;65033;44.660;37.758;2023-01-28T03:25:43;5.07;;;4.50;;
75984;SDS011;65033;44.660;37.758;2023-01-28T03:27:10;5.70;;;4.60;;
75984;SDS011;65033;44.660;37.758;2023-01-28T03:28:40;4.82;;;4.10;;
75984;SDS011;65033;44.660;37.758;2023-01-28T03:30:06;5.30;;;4.68;;
75984;SDS011;65033;44.660;37.758;2023-01-28T03:31:39;5.25;;;4.72;;
75984;SDS011;65033;44.660;37.758;2023-01-28T03:33:01;5.13;;;4.40;;
75984;SDS011;65033;44.660;37.758;2023-01-28T03:34:25;6.00;;;4.95;;
75984;SDS011;65033;44.660;37.758;2023-01-28T03:35:47;5.65;;;4.50;;
75984;SDS011;65033;44.660;37.758;2023-01-28T03:37:10;5.78;;;4.60;;
75984;SDS011;65033;44.660;37.758;2023-01-28T03:38:20;5.30;;;4.25;;
75984;SDS011;65033;44.660;37.758;2023-01-28T03:39:26;5.30;;;4.45;;
75984;SDS011;65033;44.660;37.758;2023-01-28T03:40:31;5.93;;;5.32;;
75984;SDS011;65033;44.660;37.758;2023-01-28T03:41:35;5.47;;;4.65;;
75984;SDS011;65033;44.660;37.758;2023-01-28T03:42:38;4.55;;;4.15;;
75984;SDS011;65033;44.660;37.758;2023-01-28T03:43:47;5.35;;;4.50;;
75984;SDS011;65033;44.660;37.758;2023-01-28T03:44:51;6.53;;;5.05;;
75984;SDS011;65033;44.660;37.758;2023-01-28T03:45:57;5.47;;;4.70;;
75984;SDS011;65033;44.660;37.758;2023-01-28T03:47:01;5.50;;;4.82;;
75984;SDS011;65033;44.660;37.758;2023-01-28T03:48:05;4.85;;;4.45;;
75984;SDS011;65033;44.660;37.758;2023-01-28T03:49:09;11.40;;;8.52;;
75984;SDS011;65033;44.660;37.758;2023-01-28T03:50:12;16.42;;;14.05;;
75984;SDS011;65033;44.660;37.758;2023-01-28T03:51:30;15.88;;;13.10;;
75984;SDS011;65033;44.660;37.758;2023-01-28T03:52:33;18.73;;;15.85;;
75984;SDS011;65033;44.660;37.758;2023-01-28T03:53:49;15.75;;;13.35;;
75984;SDS011;65033;44.660;37.758;2023-01-28T03:54:52;12.13;;;10.82;;
75984;SDS011;65033;44.660;37.758;2023-01-28T03:55:55;10.43;;;8.68;;
75984;SDS011;65033;44.660;37.758;2023-01-28T03:56:59;9.45;;;8.45;;
75984;SDS011;65033;44.660;37.758;2023-01-28T03:58:02;8.93;;;7.70;;
75984;SDS011;65033;44.660;37.758;2023-01-28T03:59:09;11.40;;;9.07;;
75984;SDS011;65033;44.660;37.758;2023-01-28T04:00:12;10.10;;;9.02;;
75984;SDS011;65033;44.660;37.758;2023-01-28T04:01:23;10.25;;;9.02;;
75984;SDS011;65033;44.660;37.758;2023-01-28T04:02:27;11.85;;;9.73;;
75984;SDS011;65033;44.660;37.758;2023-01-28T04:03:30;12.25;;;10.48;;
75984;SDS011;65033;44.660;37.758;2023-01-28T04:04:40;11.88;;;9.20;;
75984;SDS011;65033;44.660;37.758;2023-01-28T04:05:45;11.60;;;10.13;;
75984;SDS011;65033;44.660;37.758;2023-01-28T04:06:49;11.05;;;8.80;;
75984;SDS011;65033;44.660;37.758;2023-01-28T04:08:23;10.43;;;8.98;;
75984;SDS011;65033;44.660;37.758;2023-01-28T04:09:57;12.77;;;9.25;;
75984;SDS011;65033;44.660;37.758;2023-01-28T04:11:10;13.65;;;10.32;;
75984;SDS011;65033;44.660;37.758;2023-01-28T04:12:22;10.50;;;9.40;;
75984;SDS011;65033;44.660;37.758;2023-01-28T04:13:26;10.85;;;8.88;;
75984;SDS011;65033;44.660;37.758;2023-01-28T04:14:30;11.93;;;10.05;;
75984;SDS011;65033;44.660;37.758;2023-01-28T04:15:47;12.80;;;10.13;;
75984;SDS011;65033;44.660;37.758;2023-01-28T04:16:53;12.40;;;9.43;;
75984;SDS011;65033;44.660;37.758;2023-01-28T04:17:59;12.43;;;10.20;;
75984;SDS011;65033;44.660;37.758;2023-01-28T04:19:05;15.93;;;10.70;;
75984;SDS011;65033;44.660;37.758;2023-01-28T04:20:09;10.25;;;8.77;;
75984;SDS011;65033;44.660;37.758;2023-01-28T04:21:14;12.82;;;9.48;;
75984;SDS011;65033;44.660;37.758;2023-01-28T04:22:17;12.88;;;10.30;;
75984;SDS011;65033;44.660;37.758;2023-01-28T04:23:21;10.38;;;9.27;;
75984;SDS011;65033;44.660;37.758;2023-01-28T04:24:24;10.68;;;9.57;;
75984;SDS011;65033;44.660;37.758;2023-01-28T04:25:28;11.32;;;10.05;;
75984;SDS011;65033;44.660;37.758;2023-01-28T04:26:32;12.13;;;10.50;;
75984;SDS011;65033;44.660;37.758;2023-01-28T04:27:35;13.00;;;10.50;;
75984;SDS011;65033;44.660;37.758;2023-01-28T04:28:47;12.10;;;10.35;;
75984;SDS011;65033;44.660;37.758;2023-01-28T04:29:51;11.20;;;10.00;;
75984;SDS011;65033;44.660;37.758;2023-01-28T04:31:10;10.85;;;9.15;;
75984;SDS011;65033;44.660;37.758;2023-01-28T04:32:17;11.75;;;9.77;;
75984;SDS011;65033;44.660;37.758;2023-01-28T04:33:36;14.15;;;10.88;;
75984;SDS011;65033;44.660;37.758;2023-01-28T04:35:03;20.05;;;16.88;;
75984;SDS011;65033;44.660;37.758;2023-01-28T04:36:25;20.60;;;18.40;;
75984;SDS011;65033;44.660;37.758;2023-01-28T04:37:55;23.58;;;18.65;;
75984;SDS011;65033;44.660;37.758;2023-01-28T04:39:10;20.67;;;18.55;;
75984;SDS011;65033;44.660;37.758;2023-01-28T04:40:32;20.10;;;16.77;;
75984;SDS011;65033;44.660;37.758;2023-01-28T04:41:43;16.45;;;13.73;;
75984;SDS011;65033;44.660;37.758;2023-01-28T04:42:55;16.00;;;14.07;;
75984;SDS011;65033;44.660;37.758;2023-01-28T04:44:31;16.27;;;13.85;;
75984;SDS011;65033;44.660;37.758;2023-01-28T04:45:57;16.13;;;13.55;;
75984;SDS011;65033;44.660;37.758;2023-01-28T04:47:25;17.98;;;14.50;;
75984;SDS011;65033;44.660;37.758;2023-01-28T04:49:04;14.93;;;13.32;;
75984;SDS011;65033;44.660;37.758;2023-01-28T04:50:15;17.17;;;12.95;;
75984;SDS011;65033;44.660;37.758;2023-01-28T04:51:41;16.45;;;14.27;;
75984;SDS011;65033;44.660;37.758;2023-01-28T04:52:53;17.90;;;14.23;;
75984;SDS011;65033;44.660;37.758;2023-01-28T04:54:22;17.70;;;14.70;;
75984;SDS011;65033;44.660;37.758;2023-01-28T04:55:27;15.52;;;13.43;;
75984;SDS011;65033;44.660;37.758;2023-01-28T04:56:31;15.80;;;13.48;;
75984;SDS011;65033;44.660;37.758;2023-01-28T04:57:35;17.40;;;14.23;;
75984;SDS011;65033;44.660;37.758;2023-01-28T04:58:41;15.30;;;13.65;;
75984;SDS011;65033;44.660;37.758;2023-01-28T04:59:48;15.60;;;13.20;;
75984;SDS011;65033;44.660;37.758;2023-01-28T05:00:53;17.15;;;13.70;;
75984;SDS011;65033;44.660;37.758;2023-01-28T05:01:59;17.15;;;14.18;;
75984;SDS011;65033;44.660;37.758;2023-01-28T05:03:04;17.17;;;13.23;;
75984;SDS011;65033;44.660;37.758;2023-01-28T05:04:07;16.25;;;14.25;;
75984;SDS011;65033;44.660;37.758;2023-01-28T05:05:13;14.43;;;12.90;;
75984;SDS011;65033;44.660;37.758;2023-01-28T05:06:27;15.38;;;13.75;;
75984;SDS011;65033;44.660;37.758;2023-01-28T05:07:34;19.80;;;15.30;;
75984;SDS011;65033;44.660;37.758;2023-01-28T05:08:37;18.10;;;14.73;;
75984;SDS011;65033;44.660;37.758;2023-01-28T05:09:41;19.38;;;15.38;;
75984;SDS011;65033;44.660;37.758;2023-01-28T05:10:44;18.05;;;16.15;;
75984;SDS011;65033;44.660;37.758;2023-01-28T05:11:48;18.55;;;15.77;;
75984;SDS011;65033;44.660;37.758;2023-01-28T05:12:51;17.33;;;13.68;;
75984;SDS011;65033;44.660;37.758;2023-01-28T05:13:54;16.92;;;14.02;;
75984;SDS011;65033;44.660;37.758;2023-01-28T05:15:00;16.80;;;14.07;;
75984;SDS011;65033;44.660;37.758;2023-01-28T05:16:04;16.20;;;13.20;;
75984;SDS011;65033;44.660;37.758;2023-01-28T05:17:08;15.65;;;13.98;;
75984;SDS011;65033;44.660;37.758;2023-01-28T05:18:13;17.85;;;14.88;;
75984;SDS011;65033;44.660;37.758;2023-01-28T05:19:22;16.58;;;13.50;;
75984;SDS011;65033;44.660;37.758;2023-01-28T05:20:29;17.52;;;13.88;;
75984;SDS011;65033;44.660;37.758;2023-01-28T05:21:34;17.13;;;13.20;;
75984;SDS011;65033;44.660;37.758;2023-01-28T05:22:41;15.55;;;13.80;;
75984;SDS011;65033;44.660;37.758;2023-01-28T05:23:56;15.75;;;12.98;;
75984;SDS011;65033;44.660;37.758;2023-01-28T05:24:59;15.13;;;13.52;;
75984;SDS011;65033;44.660;37.758;2023-01-28T05:26:05;15.00;;;13.40;;
75984;SDS011;65033;44.660;37.758;2023-01-28T05:27:08;16.30;;;11.85;;
75984;SDS011;65033;44.660;37.758;2023-01-28T05:28:12;18.58;;;14.02;;
75984;SDS011;65033;44.660;37.758;2023-01-28T05:29:15;15.98;;;13.15;;
75984;SDS011;65033;44.660;37.758;2023-01-28T05:30:19;14.73;;;13.15;;
75984;SDS011;65033;44.660;37.758;2023-01-28T05:31:23;14.98;;;12.88;;
75984;SDS011;65033;44.660;37.758;2023-01-28T05:32:26;15.52;;;13.73;;
75984;SDS011;65033;44.660;37.758;2023-01-28T05:33:31;13.88;;;12.40;;
75984;SDS011;65033;44.660;37.758;2023-01-28T05:34:36;16.52;;;14.82;;
75984;SDS011;65033;44.660;37.758;2023-01-28T05:35:46;18.35;;;15.70;;
75984;SDS011;65033;44.660;37.758;2023-01-28T05:36:53;17.20;;;14.90;;
75984;SDS011;65033;44.660;37.758;2023-01-28T05:38:08;17.02;;;15.13;;
75984;SDS011;65033;44.660;37.758;2023-01-28T05:39:12;16.75;;;14.68;;
75984;SDS011;65033;44.660;37.758;2023-01-28T05:40:15;15.35;;;12.00;;
75984;SDS011;65033;44.660;37.758;2023-01-28T05:41:19;17.02;;;13.82;;
75984;SDS011;65033;44.660;37.758;2023-01-28T05:42:29;15.48;;;13.43;;
75984;SDS011;65033;44.660;37.758;2023-01-28T05:43:46;14.90;;;13.40;;
75984;SDS011;65033;44.660;37.758;2023-01-28T05:44:58;18.35;;;14.13;;
75984;SDS011;65033;44.660;37.758;2023-01-28T05:46:13;15.77;;;13.35;;
75984;SDS011;65033;44.660;37.758;2023-01-28T05:47:35;16.35;;;13.98;;
75984;SDS011;65033;44.660;37.758;2023-01-28T05:48:54;17.42;;;13.43;;
75984;SDS011;65033;44.660;37.758;2023-01-28T05:50:16;15.95;;;13.30;;
75984;SDS011;65033;44.660;37.758;2023-01-28T05:51:52;15.65;;;13.63;;
75984;SDS011;65033;44.660;37.758;2023-01-28T05:52:56;15.88;;;13.27;;
75984;SDS011;65033;44.660;37.758;2023-01-28T05:54:05;15.15;;;12.50;;
75984;SDS011;65033;44.660;37.758;2023-01-28T05:55:09;15.73;;;13.13;;
75984;SDS011;65033;44.660;37.758;2023-01-28T05:56:12;16.25;;;14.23;;
75984;SDS011;65033;44.660;37.758;2023-01-28T05:57:16;14.00;;;12.00;;
75984;SDS011;65033;44.660;37.758;2023-01-28T05:58:20;13.40;;;11.88;;
75984;SDS011;65033;44.660;37.758;2023-01-28T05:59:23;16.25;;;12.98;;
75984;SDS011;65033;44.660;37.758;2023-01-28T06:00:28;15.73;;;13.18;;
75984;SDS011;65033;44.660;37.758;2023-01-28T06:01:33;14.35;;;12.77;;
75984;SDS011;65033;44.660;37.758;2023-01-28T06:02:37;14.25;;;12.77;;
75984;SDS011;65033;44.660;37.758;2023-01-28T06:03:40;15.50;;;13.07;;
75984;SDS011;65033;44.660;37.758;2023-01-28T06:04:45;14.80;;;12.35;;
75984;SDS011;65033;44.660;37.758;2023-01-28T06:05:48;13.38;;;11.93;;
75984;SDS011;65033;44.660;37.758;2023-01-28T06:06:52;17.58;;;12.27;;
75984;SDS011;65033;44.660;37.758;2023-01-28T06:07:55;14.40;;;12.70;;
75984;SDS011;65033;44.660;37.758;2023-01-28T06:09:02;18.00;;;12.82;;
75984;SDS011;65033;44.660;37.758;2023-01-28T06:10:06;14.10;;;11.93;;
75984;SDS011;65033;44.660;37.758;2023-01-28T06:11:10;14.02;;;11.40;;
75984;SDS011;65033;44.660;37.758;2023-01-28T06:12:13;13.85;;;11.95;;
75984;SDS011;65033;44.660;37.758;2023-01-28T06:13:34;14.25;;;12.38;;
75984;SDS011;65033;44.660;37.758;2023-01-28T06:15:09;15.65;;;12.55;;
75984;SDS011;65033;44.660;37.758;2023-01-28T06:16:32;13.25;;;11.88;;
75984;SDS011;65033;44.660;37.758;2023-01-28T06:17:54;13.20;;;11.80;;
75984;SDS011;65033;44.660;37.758;2023-01-28T06:19:02;13.32;;;11.88;;
75984;SDS011;65033;44.660;37.758;2023-01-28T06:20:10;13.98;;;11.18;;
75984;SDS011;65033;44.660;37.758;2023-01-28T06:21:14;13.55;;;12.15;;
75984;SDS011;65033;44.660;37.758;2023-01-28T06:22:18;14.23;;;12.60;;
75984;SDS011;65033;44.660;37.758;2023-01-28T06:23:23;13.57;;;11.95;;
75984;SDS011;65033;44.660;37.758;2023-01-28T06:24:27;13.40;;;11.82;;
75984;SDS011;65033;44.660;37.758;2023-01-28T06:25:30;16.10;;;12.52;;
75984;SDS011;65033;44.660;37.758;2023-01-28T06:26:38;14.57;;;11.85;;
75984;SDS011;65033;44.660;37.758;2023-01-28T06:27:41;13.25;;;11.57;;
75984;SDS011;65033;44.660;37.758;2023-01-28T06:28:44;13.75;;;12.35;;
75984;SDS011;65033;44.660;37.758;2023-01-28T06:29:48;12.88;;;11.40;;
75984;SDS011;65033;44.660;37.758;2023-01-28T06:30:52;13.35;;;11.95;;
75984;SDS011;65033;44.660;37.758;2023-01-28T06:31:56;15.13;;;12.27;;
75984;SDS011;65033;44.660;37.758;2023-01-28T06:32:59;13.90;;;12.50;;
75984;SDS011;65033;44.660;37.758;2023-01-28T06:34:02;12.73;;;11.32;;
75984;SDS011;65033;44.660;37.758;2023-01-28T06:35:10;12.32;;;11.00;;
75984;SDS011;65033;44.660;37.758;2023-01-28T06:36:13;14.63;;;10.55;;
75984;SDS011;65033;44.660;37.758;2023-01-28T06:37:16;14.38;;;11.40;;
75984;SDS011;65033;44.660;37.758;2023-01-28T06:38:19;14.32;;;11.95;;
75984;SDS011;65033;44.660;37.758;2023-01-28T06:39:23;15.57;;;11.95;;
75984;SDS011;65033;44.660;37.758;2023-01-28T06:40:28;13.15;;;11.30;;
75984;SDS011;65033;44.660;37.758;2023-01-28T06:41:31;14.98;;;11.00;;
75984;SDS011;65033;44.660;37.758;2023-01-28T06:42:34;12.32;;;11.15;;
75984;SDS011;65033;44.660;37.758;2023-01-28T06:43:38;12.27;;;10.35;;
75984;SDS011;65033;44.660;37.758;2023-01-28T06:44:41;12.82;;;11.43;;
75984;SDS011;65033;44.660;37.758;2023-01-28T06:45:44;12.98;;;10.90;;
75984;SDS011;65033;44.660;37.758;2023-01-28T06:46:47;12.40;;;10.90;;
75984;SDS011;65033;44.660;37.758;2023-01-28T06:47:51;13.15;;;11.75;;
75984;SDS011;65033;44.660;37.758;2023-01-28T06:48:54;13.18;;;11.65;;